createdAt,value
2023-02-04T00:01:55.502Z,101621.66
2023-02-04T00:04:21.977Z,101612.44
2023-02-04T00:06:48.473Z,101622.50
2023-02-04T00:09:16.418Z,101633.72
2023-02-04T00:11:42.897Z,101655.25
2023-02-04T00:14:09.551Z,101654.88
2023-02-04T00:16:36.023Z,101666.00
2023-02-04T00:19:02.467Z,101669.41
2023-02-04T00:21:29.052Z,101671.22
2023-02-04T00:23:57.867Z,101683.97
2023-02-04T00:26:24.956Z,101693.31
2023-02-04T00:28:51.462Z,101693.16
2023-02-04T00:31:17.993Z,101700.91
2023-02-04T00:33:44.558Z,101711.38
2023-02-04T00:36:11.068Z,101715.53
2023-02-04T00:38:39.936Z,101722.41
2023-02-04T00:41:07.017Z,101723.94
2023-02-04T00:43:33.727Z,101726.41
2023-02-04T00:46:00.474Z,101730.84
2023-02-04T00:48:27.427Z,101736.97
2023-02-04T00:50:54.320Z,101742.13
2023-02-04T00:53:20.978Z,101744.81
2023-02-04T00:55:47.744Z,101751.69
2023-02-04T00:58:14.271Z,101748.00
2023-02-04T01:00:40.970Z,101764.53
2023-02-04T01:03:07.766Z,101763.44
2023-02-04T01:05:34.274Z,101774.47
2023-02-04T01:08:00.942Z,101781.16
2023-02-04T01:10:28.521Z,101783.59
2023-02-04T01:12:56.616Z,101794.88
2023-02-04T01:15:23.274Z,101794.97
2023-02-04T01:17:50.873Z,101801.03
2023-02-04T01:20:17.500Z,101814.91
2023-02-04T01:22:44.054Z,101823.13
2023-02-04T01:25:10.746Z,101831.34
2023-02-04T01:27:40.891Z,101833.50
2023-02-04T01:30:08.597Z,101840.81
2023-02-04T01:32:35.395Z,101845.75
2023-02-04T01:35:02.165Z,101851.63
2023-02-04T01:37:28.794Z,101864.50
2023-02-04T01:39:55.237Z,101870.47
2023-02-04T01:42:21.907Z,101884.06
2023-02-04T01:44:48.903Z,101889.91
2023-02-04T01:47:15.469Z,101902.66
2023-02-04T01:49:42.450Z,101895.47
2023-02-04T01:52:11.086Z,101917.19
2023-02-04T01:54:37.705Z,101915.06
2023-02-04T01:57:04.288Z,101932.38
2023-02-04T01:59:30.922Z,101936.41
2023-02-04T02:01:59.888Z,101935.22
2023-02-04T02:04:32.779Z,101932.31
2023-02-04T02:07:05.412Z,101941.66
2023-02-04T02:09:34.124Z,101938.84
2023-02-04T02:12:03.156Z,101945.69
2023-02-04T02:14:29.681Z,101958.56
2023-02-04T02:16:57.182Z,101968.03
2023-02-04T02:19:35.834Z,101960.00
2023-02-04T02:22:07.410Z,101971.03
2023-02-04T02:24:35.583Z,101967.31
2023-02-04T02:27:07.276Z,101974.06
2023-02-04T02:29:34.414Z,101966.00
2023-02-04T02:32:01.326Z,101972.84
2023-02-04T02:34:29.402Z,101979.69
2023-02-04T02:36:57.579Z,101972.44
2023-02-04T02:39:24.988Z,101979.28
2023-02-04T02:41:51.676Z,101997.47
2023-02-04T02:44:18.672Z,101994.53
2023-02-04T02:46:45.771Z,101990.72
2023-02-04T02:49:17.103Z,102007.09
2023-02-04T02:51:44.730Z,101998.03
2023-02-04T02:54:29.590Z,101999.53
2023-02-04T02:56:59.668Z,102015.09
2023-02-04T02:59:26.979Z,102010.56
2023-02-04T03:02:00.870Z,102020.03
2023-02-04T03:04:31.709Z,102030.47
2023-02-04T03:06:58.556Z,102028.63
2023-02-04T03:09:27.225Z,102036.38
2023-02-04T03:11:54.292Z,102042.28
2023-02-04T03:14:24.238Z,102055.13
2023-02-04T03:16:52.889Z,102062.75
2023-02-04T03:19:20.721Z,102060.94
2023-02-04T03:21:49.769Z,102060.81
2023-02-04T03:24:16.869Z,102063.13
2023-02-04T03:26:43.439Z,102073.34
2023-02-04T03:29:11.668Z,102083.56
2023-02-04T03:31:38.397Z,102093.81
2023-02-04T03:34:05.528Z,102092.91
2023-02-04T03:36:32.050Z,102102.41
2023-02-04T03:38:58.730Z,102107.44
2023-02-04T03:41:25.177Z,102114.34
2023-02-04T03:43:51.626Z,102114.25
2023-02-04T03:46:18.087Z,102120.13
2023-02-04T03:48:44.603Z,102126.94
2023-02-04T03:51:11.461Z,102132.88
2023-02-04T03:53:37.990Z,102143.09
2023-02-04T03:56:04.850Z,102148.09
2023-02-04T03:58:31.320Z,102147.06
2023-02-04T04:00:57.822Z,102152.28
2023-02-04T04:03:24.386Z,102154.78
2023-02-04T04:05:50.796Z,102164.31
2023-02-04T04:08:17.317Z,102170.34
2023-02-04T04:10:43.747Z,102170.91
2023-02-04T04:13:10.215Z,102179.53
2023-02-04T04:15:39.487Z,102185.31
2023-02-04T04:18:07.258Z,102192.13
2023-02-04T04:20:34.449Z,102200.75
2023-02-04T04:23:01.084Z,102209.34
2023-02-04T04:25:27.705Z,102214.56
2023-02-04T04:27:54.266Z,102222.28
2023-02-04T04:30:20.862Z,102221.72
2023-02-04T04:32:47.358Z,102227.53
2023-02-04T04:35:13.860Z,102234.09
2023-02-04T04:37:40.635Z,102245.44
2023-02-04T04:40:07.529Z,102241.81
2023-02-04T04:42:33.981Z,102242.38
2023-02-04T04:45:00.426Z,102251.00
2023-02-04T04:47:26.964Z,102252.78
2023-02-04T04:49:53.457Z,102251.31
2023-02-04T04:52:19.950Z,102258.47
2023-02-04T04:54:46.761Z,102263.69
2023-02-04T04:57:13.255Z,102259.22
2023-02-04T04:59:39.710Z,102273.88
2023-02-04T05:02:06.269Z,102273.53
2023-02-04T05:04:32.808Z,102287.13
2023-02-04T05:06:59.357Z,102286.00
2023-02-04T05:09:26.930Z,102288.25
2023-02-04T05:11:53.531Z,102289.47
2023-02-04T05:14:20.105Z,102295.25
2023-02-04T05:16:46.556Z,102297.50
2023-02-04T05:19:13.109Z,102299.75
2023-02-04T05:21:39.586Z,102302.81
2023-02-04T05:24:06.522Z,102303.13
2023-02-04T05:26:33.573Z,102306.97
2023-02-04T05:29:00.547Z,102304.91
2023-02-04T05:31:27.537Z,102292.25
2023-02-04T05:33:54.676Z,102300.53
2023-02-04T05:36:21.810Z,102298.22
2023-02-04T05:38:48.596Z,102295.03
2023-02-04T05:41:15.142Z,102295.25
2023-02-04T05:43:41.718Z,102304.00
2023-02-04T05:46:08.324Z,102315.97
2023-02-04T05:48:35.961Z,102316.63
2023-02-04T05:51:02.736Z,102325.97
2023-02-04T05:53:29.261Z,102330.28
2023-02-04T05:55:56.066Z,102338.47
2023-02-04T05:58:22.528Z,102345.75
2023-02-04T06:00:49.031Z,102353.09
2023-02-04T06:03:15.624Z,102350.03
2023-02-04T06:05:44.181Z,102366.13
2023-02-04T06:08:11.062Z,102363.94
2023-02-04T06:10:37.642Z,102365.75
2023-02-04T06:13:04.098Z,102378.81
2023-02-04T06:15:30.602Z,102384.03
2023-02-04T06:17:58.327Z,102386.81
2023-02-04T06:20:24.862Z,102394.50
2023-02-04T06:22:51.750Z,102409.19
2023-02-04T06:25:18.509Z,102409.91
2023-02-04T06:27:45.045Z,102414.00
2023-02-04T06:30:12.391Z,102413.00
2023-02-04T06:32:38.881Z,102420.03
2023-02-04T06:35:05.900Z,102423.34
2023-02-04T06:37:32.645Z,102427.00
2023-02-04T06:39:59.209Z,102423.34
2023-02-04T06:42:25.710Z,102428.25
2023-02-04T06:44:54.049Z,102420.97
2023-02-04T06:47:20.557Z,102430.19
2023-02-04T06:49:47.095Z,102427.94
2023-02-04T06:52:13.694Z,102428.41
2023-02-04T06:54:40.215Z,102429.91
2023-02-04T06:57:06.800Z,102429.50
2023-02-04T06:59:35.304Z,102430.84
2023-02-04T07:02:02.471Z,102441.66
2023-02-04T07:04:28.964Z,102446.56
2023-02-04T07:06:55.702Z,102452.91
2023-02-04T07:09:22.417Z,102453.38
2023-02-04T07:11:49.018Z,102460.88
2023-02-04T07:14:15.486Z,102464.16
2023-02-04T07:16:41.932Z,102467.44
2023-02-04T07:19:08.500Z,102462.00
2023-02-04T07:21:35.089Z,102467.94
2023-02-04T07:24:01.734Z,102479.97
2023-02-04T07:26:28.274Z,102484.25
2023-02-04T07:28:54.792Z,102480.72
2023-02-04T07:31:21.405Z,102486.06
2023-02-04T07:33:48.164Z,102490.41
2023-02-04T07:36:15.413Z,102494.03
2023-02-04T07:38:41.928Z,102502.88
2023-02-04T07:41:08.421Z,102510.03
2023-02-04T07:43:35.187Z,102525.06
2023-02-04T07:46:01.732Z,102525.28
2023-02-04T07:48:28.256Z,102522.88
2023-02-04T07:50:54.692Z,102520.53
2023-02-04T07:53:21.107Z,102527.75
2023-02-04T07:55:47.538Z,102539.34
2023-02-04T07:58:14.058Z,102537.66
2023-02-04T08:00:40.569Z,102533.25
2023-02-04T08:03:07.169Z,102547.34
2023-02-04T08:05:33.665Z,102547.34
2023-02-04T08:08:01.973Z,102546.53
2023-02-04T08:10:28.518Z,102552.69
2023-02-04T08:12:56.183Z,102561.44
2023-02-04T08:15:23.887Z,102564.03
2023-02-04T08:17:50.322Z,102566.53
2023-02-04T08:20:18.459Z,102566.41
2023-02-04T08:22:45.193Z,102577.66
2023-02-04T08:25:12.838Z,102575.84
2023-02-04T08:27:39.490Z,102577.66
2023-02-04T08:30:06.633Z,102572.44
2023-02-04T08:32:33.297Z,102576.84
2023-02-04T08:34:59.859Z,102569.94
2023-02-04T08:37:26.440Z,102575.28
2023-02-04T08:39:53.102Z,102576.31
2023-02-04T08:42:19.949Z,102585.19
2023-02-04T08:44:46.560Z,102588.81
2023-02-04T08:47:13.099Z,102591.53
2023-02-04T08:49:39.693Z,102593.34
2023-02-04T08:52:07.924Z,102600.63
2023-02-04T08:54:35.203Z,102600.06
2023-02-04T08:57:02.551Z,102601.44
2023-02-04T08:59:29.023Z,102610.50
2023-02-04T09:01:55.584Z,102613.50
2023-02-04T09:04:23.639Z,102607.69
2023-02-04T09:06:50.802Z,102607.69
2023-02-04T09:09:20.978Z,102612.22
2023-02-04T09:11:48.873Z,102605.31
2023-02-04T09:14:15.355Z,102614.19
2023-02-04T09:16:41.947Z,102606.34
2023-02-04T09:19:10.939Z,102614.28
2023-02-04T09:21:37.409Z,102614.50
2023-02-04T09:24:04.052Z,102611.22
2023-02-04T09:26:30.938Z,102616.00
2023-02-04T09:28:57.456Z,102629.06
2023-02-04T09:31:24.178Z,102623.03
2023-02-04T09:33:50.838Z,102633.63
2023-02-04T09:36:17.494Z,102626.56
2023-02-04T09:38:44.233Z,102635.44
2023-02-04T09:41:12.821Z,102638.41
2023-02-04T09:43:43.006Z,102632.38
2023-02-04T09:46:21.473Z,102645.66
2023-02-04T09:48:49.392Z,102640.44
2023-02-04T09:51:23.239Z,102657.97
2023-02-04T09:53:53.792Z,102643.28
2023-02-04T09:56:20.442Z,102652.28
2023-02-04T09:58:48.044Z,102652.50
2023-02-04T10:01:18.318Z,102662.28
2023-02-04T10:03:47.035Z,102670.34
2023-02-04T10:06:19.039Z,102666.16
2023-02-04T10:08:47.696Z,102667.28
2023-02-04T10:11:15.883Z,102664.88
2023-02-04T10:13:45.608Z,102663.38
2023-02-04T10:16:19.362Z,102668.88
2023-02-04T10:18:46.870Z,102665.66
2023-02-04T10:21:24.424Z,102664.31
2023-02-04T10:23:54.758Z,102663.94
2023-02-04T10:26:22.712Z,102661.06
2023-02-04T10:28:52.049Z,102665.03
2023-02-04T10:31:38.199Z,102671.94
2023-02-04T10:34:18.549Z,102673.81
2023-02-04T10:36:48.432Z,102679.91
2023-02-04T10:39:23.668Z,102679.66
2023-02-04T10:41:55.140Z,102677.97
2023-02-04T10:44:29.860Z,102672.66
2023-02-04T10:47:17.385Z,102677.19
2023-02-04T10:50:06.198Z,102687.91
2023-02-04T10:52:42.002Z,102687.03
2023-02-04T10:55:15.722Z,102700.34
2023-02-04T10:57:44.686Z,102697.00
2023-02-04T11:00:22.996Z,102701.75
2023-02-04T11:03:03.690Z,102689.16
2023-02-04T11:05:32.814Z,102693.94
2023-02-04T11:07:59.662Z,102697.59
2023-02-04T11:10:32.687Z,102686.09
2023-02-04T11:13:06.062Z,102686.81
2023-02-04T11:16:08.304Z,102690.81
2023-02-04T11:18:47.042Z,102697.34
2023-02-04T11:21:26.143Z,102702.16
2023-02-04T11:24:11.029Z,102700.63
2023-02-04T11:26:40.243Z,102703.53
2023-02-04T11:29:06.701Z,102709.88
2023-02-04T11:31:45.583Z,102702.34
2023-02-04T11:34:15.193Z,102708.78
2023-02-04T11:36:57.018Z,102708.25
2023-02-04T11:39:28.870Z,102716.59
2023-02-04T11:41:55.464Z,102721.03
2023-02-04T11:44:23.111Z,102721.66
2023-02-04T11:46:56.677Z,102716.06
2023-02-04T11:49:26.444Z,102727.69
2023-02-04T11:52:08.630Z,102732.22
2023-02-04T11:54:36.489Z,102729.69
2023-02-04T11:57:03.452Z,102734.41
2023-02-04T11:59:30.046Z,102728.94
2023-02-04T12:02:18.025Z,102727.75
2023-02-04T12:05:11.705Z,102722.03
2023-02-04T12:07:38.483Z,102724.31
2023-02-04T12:10:15.308Z,102715.84
2023-02-04T12:12:49.997Z,102718.88
2023-02-04T12:15:24.028Z,102721.88
2023-02-04T12:18:05.220Z,102717.38
2023-02-04T12:20:31.716Z,102723.59
2023-02-04T12:22:58.521Z,102723.81
2023-02-04T12:25:26.097Z,102727.16
2023-02-04T12:27:55.968Z,102729.72
2023-02-04T12:30:23.738Z,102732.94
2023-02-04T12:32:50.236Z,102738.81
2023-02-04T12:35:17.145Z,102736.59
2023-02-04T12:37:43.973Z,102741.53
2023-02-04T12:40:19.109Z,102750.94
2023-02-04T12:42:45.774Z,102749.03
2023-02-04T12:45:14.251Z,102750.56
2023-02-04T12:47:42.227Z,102743.47
2023-02-04T12:50:10.756Z,102752.19
2023-02-04T12:52:37.239Z,102749.16
2023-02-04T12:55:05.172Z,102747.25
2023-02-04T12:57:32.619Z,102747.75
2023-02-04T13:00:01.346Z,102751.75
2023-02-04T13:02:28.689Z,102748.34
2023-02-04T13:04:55.366Z,102752.88
2023-02-04T13:07:23.020Z,102753.28
2023-02-04T13:09:49.556Z,102751.34
2023-02-04T13:12:16.378Z,102752.28
2023-02-04T13:14:43.890Z,102750.44
2023-02-04T13:17:10.406Z,102752.13
2023-02-04T13:19:37.025Z,102757.03
2023-02-04T13:22:03.885Z,102752.88
2023-02-04T13:24:31.060Z,102752.28
2023-02-04T13:26:57.519Z,102754.69
2023-02-04T13:29:24.067Z,102748.47
2023-02-04T13:31:52.119Z,102740.41
2023-02-04T13:34:19.414Z,102754.53
2023-02-04T13:36:46.004Z,102753.72
2023-02-04T13:39:12.495Z,102762.63
2023-02-04T13:41:39.072Z,102759.63
2023-02-04T13:44:05.691Z,102759.09
2023-02-04T13:46:33.356Z,102763.47
2023-02-04T13:48:59.892Z,102758.28
2023-02-04T13:51:27.276Z,102755.91
2023-02-04T13:53:53.845Z,102766.47
2023-02-04T13:56:20.356Z,102758.84
2023-02-04T13:58:46.817Z,102756.22
2023-02-04T14:01:14.055Z,102759.63
2023-02-04T14:03:41.248Z,102759.31
2023-02-04T14:06:09.588Z,102764.34
2023-02-04T14:08:36.239Z,102771.78
2023-02-04T14:11:02.833Z,102771.38
2023-02-04T14:13:29.461Z,102763.34
2023-02-04T14:15:56.022Z,102761.66
2023-02-04T14:18:22.687Z,102765.41
2023-02-04T14:20:49.422Z,102764.13
2023-02-04T14:23:16.129Z,102766.38
2023-02-04T14:25:42.680Z,102762.72
2023-02-04T14:28:09.297Z,102761.72
2023-02-04T14:30:36.473Z,102759.91
2023-02-04T14:33:03.466Z,102760.84
2023-02-04T14:35:30.429Z,102761.84
2023-02-04T14:37:57.032Z,102766.28
2023-02-04T14:40:23.654Z,102767.19
2023-02-04T14:42:50.174Z,102770.59
2023-02-04T14:45:16.920Z,102762.63
2023-02-04T14:47:43.520Z,102766.88
2023-02-04T14:50:15.125Z,102770.13
2023-02-04T14:52:42.200Z,102766.38
2023-02-04T14:55:11.062Z,102781.03
2023-02-04T14:57:37.677Z,102775.41
2023-02-04T15:00:06.910Z,102786.63
2023-02-04T15:02:33.589Z,102786.34
2023-02-04T15:05:00.150Z,102785.09
2023-02-04T15:07:28.057Z,102789.25
2023-02-04T15:09:54.600Z,102782.00
2023-02-04T15:12:22.617Z,102780.66
2023-02-04T15:14:49.125Z,102782.09
2023-02-04T15:17:15.602Z,102775.41
2023-02-04T15:19:42.040Z,102778.50
2023-02-04T15:22:08.775Z,102773.63
2023-02-04T15:24:35.309Z,102774.03
2023-02-04T15:27:02.060Z,102785.03
2023-02-04T15:29:28.669Z,102781.09
2023-02-04T15:31:56.176Z,102780.75
2023-02-04T15:34:22.716Z,102781.16
2023-02-04T15:36:49.290Z,102772.06
2023-02-04T15:39:15.887Z,102783.16
2023-02-04T15:41:42.357Z,102780.13
2023-02-04T15:44:09.303Z,102788.59
2023-02-04T15:46:35.991Z,102780.28
2023-02-04T15:49:02.728Z,102786.00
2023-02-04T15:51:29.316Z,102776.72
2023-02-04T15:53:55.902Z,102782.25
2023-02-04T15:56:22.492Z,102781.91
2023-02-04T15:58:49.048Z,102776.34
2023-02-04T16:01:15.679Z,102780.22
2023-02-04T16:03:44.740Z,102787.53
2023-02-04T16:06:11.588Z,102773.78
2023-02-04T16:08:38.860Z,102789.09
2023-02-04T16:11:06.170Z,102780.78
2023-02-04T16:13:32.908Z,102796.19
2023-02-04T16:15:59.460Z,102791.25
2023-02-04T16:18:26.380Z,102791.72
2023-02-04T16:20:53.005Z,102782.75
2023-02-04T16:23:19.672Z,102787.66
2023-02-04T16:25:46.770Z,102792.34
2023-02-04T16:28:13.434Z,102797.34
2023-02-04T16:30:41.122Z,102803.47
2023-02-04T16:33:07.789Z,102804.28
2023-02-04T16:35:58.554Z,102792.69
2023-02-04T16:38:25.716Z,102789.16
2023-02-04T16:40:52.296Z,102790.19
2023-02-04T16:43:18.905Z,102792.91
2023-02-04T16:45:45.426Z,102797.34
2023-02-04T16:48:12.499Z,102798.13
2023-02-04T16:50:38.980Z,102806.69
2023-02-04T16:53:05.734Z,102808.28
2023-02-04T16:55:33.599Z,102802.94
2023-02-04T16:58:00.246Z,102796.69
2023-02-04T17:00:27.059Z,102798.38
2023-02-04T17:02:53.602Z,102792.94
2023-02-04T17:05:20.151Z,102810.22
2023-02-04T17:07:46.967Z,102811.81
2023-02-04T17:10:13.526Z,102812.38
2023-02-04T17:12:40.028Z,102810.31
2023-02-04T17:15:06.806Z,102816.16
2023-02-04T17:17:33.312Z,102822.88
2023-02-04T17:20:00.446Z,102820.91
2023-02-04T17:22:27.112Z,102826.72
2023-02-04T17:24:53.766Z,102825.78
2023-02-04T17:27:22.392Z,102839.03
2023-02-04T17:29:49.580Z,102841.63
2023-02-04T17:32:16.078Z,102835.47
2023-02-04T17:34:42.733Z,102847.91
2023-02-04T17:37:09.304Z,102844.47
2023-02-04T17:39:35.817Z,102837.53
2023-02-04T17:42:02.454Z,102836.63
2023-02-04T17:44:28.968Z,102847.09
2023-02-04T17:46:55.736Z,102840.81
2023-02-04T17:49:22.377Z,102833.63
2023-02-04T17:51:48.845Z,102841.63
2023-02-04T17:54:15.598Z,102860.72
2023-02-04T17:56:42.053Z,102855.28
2023-02-04T17:59:11.812Z,102860.16
2023-02-04T18:01:40.750Z,102855.50
2023-02-04T18:04:14.056Z,102854.22
2023-02-04T18:06:40.794Z,102848.63
2023-02-04T18:09:17.878Z,102843.72
2023-02-04T18:11:45.091Z,102850.31
2023-02-04T18:14:17.854Z,102849.03
2023-02-04T18:16:44.774Z,102844.94
2023-02-04T18:19:28.649Z,102841.72
2023-02-04T18:21:55.566Z,102845.56
2023-02-04T18:24:36.075Z,102852.69
2023-02-04T18:27:15.591Z,102842.53
2023-02-04T18:29:45.220Z,102846.34
2023-02-04T18:32:21.409Z,102850.19
2023-02-04T18:34:53.658Z,102847.88
2023-02-04T18:37:25.964Z,102842.16
2023-02-04T18:40:10.715Z,102842.69
2023-02-04T18:42:42.299Z,102838.00
2023-02-04T18:45:30.133Z,102841.72
2023-02-04T18:47:59.199Z,102837.72
2023-02-04T18:50:32.437Z,102838.78
2023-02-04T18:53:25.588Z,102831.34
2023-02-04T18:55:55.246Z,102842.34
2023-02-04T18:58:41.636Z,102850.69
2023-02-04T19:01:11.473Z,102853.19
2023-02-04T19:03:49.264Z,102846.81
2023-02-04T19:06:38.047Z,102852.72
2023-02-04T19:09:10.194Z,102860.16
2023-02-04T19:11:45.821Z,102860.56
2023-02-04T19:14:36.566Z,102862.81
2023-02-04T19:17:26.444Z,102869.34
2023-02-04T19:20:08.666Z,102884.72
2023-02-04T19:22:35.040Z,102877.69
2023-02-04T19:25:35.728Z,102875.63
2023-02-04T19:28:22.778Z,102883.44
2023-02-04T19:30:54.803Z,102874.69
2023-02-04T19:33:31.362Z,102872.88
2023-02-04T19:36:00.612Z,102877.31
2023-02-04T19:38:38.639Z,102873.13
2023-02-04T19:41:27.124Z,102882.13
2023-02-04T19:44:14.028Z,102883.16
2023-02-04T19:46:43.858Z,102879.50
2023-02-04T19:49:29.348Z,102874.69
2023-02-04T19:51:59.050Z,102879.53
2023-02-04T19:54:38.630Z,102879.81
2023-02-04T19:57:22.721Z,102883.72
2023-02-04T19:59:49.234Z,102886.06
2023-02-04T20:02:33.359Z,102881.38
2023-02-04T20:05:00.371Z,102880.19
2023-02-04T20:07:29.311Z,102874.84
2023-02-04T20:10:24.936Z,102875.50
2023-02-04T20:12:55.804Z,102880.72
2023-02-04T20:15:25.442Z,102869.28
2023-02-04T20:17:52.472Z,102875.25
2023-02-04T20:20:21.148Z,102872.53
2023-02-04T20:22:50.533Z,102875.00
2023-02-04T20:25:19.769Z,102883.75
2023-02-04T20:27:55.429Z,102882.94
2023-02-04T20:30:28.131Z,102888.16
2023-02-04T20:32:57.081Z,102888.03
2023-02-04T20:35:23.452Z,102901.09
2023-02-04T20:37:53.784Z,102893.13
2023-02-04T20:40:34.041Z,102884.25
2023-02-04T20:43:15.853Z,102891.28
2023-02-04T20:46:00.006Z,102887.63
2023-02-04T20:48:38.008Z,102887.50
2023-02-04T20:51:14.785Z,102887.25
2023-02-04T20:53:48.459Z,102891.56
2023-02-04T20:56:37.342Z,102881.91
2023-02-04T20:59:23.716Z,102877.47
2023-02-04T21:01:50.677Z,102873.03
2023-02-04T21:04:25.943Z,102876.41
2023-02-04T21:06:55.100Z,102865.97
2023-02-04T21:09:27.512Z,102865.97
2023-02-04T21:11:56.002Z,102882.44
2023-02-04T21:14:23.408Z,102882.44
2023-02-04T21:16:50.126Z,102868.34
2023-02-04T21:19:16.917Z,102862.75
2023-02-04T21:21:43.824Z,102864.31
2023-02-04T21:24:10.490Z,102856.06
2023-02-04T21:26:37.265Z,102854.91
2023-02-04T21:29:07.792Z,102848.50
2023-02-04T21:31:34.569Z,102843.94
2023-02-04T21:34:01.169Z,102845.53
2023-02-04T21:36:27.906Z,102848.25
2023-02-04T21:38:55.507Z,102851.38
2023-02-04T21:41:22.207Z,102856.34
2023-02-04T21:43:50.739Z,102856.06
2023-02-04T21:46:18.189Z,102854.25
2023-02-04T21:48:45.018Z,102850.59
2023-02-04T21:51:12.978Z,102850.59
2023-02-04T21:53:40.455Z,102847.97
2023-02-04T21:56:08.239Z,102848.09
2023-02-04T21:58:35.212Z,102854.25
2023-02-04T22:01:01.707Z,102855.16
2023-02-04T22:03:28.279Z,102852.41
2023-02-04T22:05:54.728Z,102861.00
2023-02-04T22:08:21.840Z,102862.56
2023-02-04T22:10:48.365Z,102860.47
2023-02-04T22:13:14.790Z,102863.63
2023-02-04T22:15:41.277Z,102859.78
2023-02-04T22:18:07.740Z,102867.34
2023-02-04T22:20:34.199Z,102861.09
2023-02-04T22:23:00.967Z,102860.97
2023-02-04T22:25:27.506Z,102863.31
2023-02-04T22:27:54.079Z,102859.53
2023-02-04T22:30:20.804Z,102859.41
2023-02-04T22:32:47.413Z,102853.13
2023-02-04T22:35:14.799Z,102852.84
2023-02-04T22:37:42.504Z,102858.84
2023-02-04T22:40:11.865Z,102852.59
2023-02-04T22:42:38.485Z,102850.78
2023-02-04T22:45:05.460Z,102841.13
2023-02-04T22:47:32.041Z,102836.69
2023-02-04T22:49:58.618Z,102848.66
2023-02-04T22:52:25.842Z,102858.03
2023-02-04T22:54:52.511Z,102857.63
2023-02-04T22:57:19.129Z,102858.28
2023-02-04T22:59:45.605Z,102858.78
2023-02-04T23:02:12.134Z,102855.91
2023-02-04T23:04:38.788Z,102852.38
2023-02-04T23:07:05.487Z,102849.34
2023-02-04T23:09:33.600Z,102848.47
2023-02-04T23:12:12.598Z,102843.13
2023-02-04T23:14:44.631Z,102852.50
2023-02-04T23:17:11.999Z,102847.91
2023-02-04T23:19:39.000Z,102863.41
2023-02-04T23:22:06.672Z,102864.81
2023-02-04T23:24:34.093Z,102862.84
2023-02-04T23:27:01.114Z,102859.19
2023-02-04T23:29:29.228Z,102862.69
2023-02-04T23:31:56.579Z,102865.94
2023-02-04T23:34:24.071Z,102851.91
2023-02-04T23:36:53.849Z,102858.66
2023-02-04T23:39:21.386Z,102864.47
2023-02-04T23:41:48.432Z,102864.22
2023-02-04T23:44:15.122Z,102861.47
2023-02-04T23:46:42.204Z,102869.13
2023-02-04T23:49:09.281Z,102870.84
2023-02-04T23:51:36.682Z,102873.44
2023-02-04T23:54:03.468Z,102871.59
2023-02-04T23:56:30.055Z,102869.78
2023-02-04T23:58:56.748Z,102862.72
